You are on page 1of 4

Apellidos y Nombres

INSTITUTO DE EDUCACIN SUPERIOR


TECNOLGICO PBLICO NAVAL - CITEN Carrera:
Departamento de Formacin Acadmica .
Oficina de Evaluacin y Estadstica
PRUEBA ESCRITA N 1

Carrera: Ao:. Fecha: ...................


Unidad Didctica:
Docente: ... Tiempo: 60 minutos

1. Es motivo de anulacin del examen: copiar, intentar copiar o ayudar a copiar, correspondindole el
calificativo de CERO (00), adems de la respectiva sancin disciplinaria, hecho que ser consignado
en el parte de novedades.
2. Los alumnos y aspirante podrn solicitar la consideracin de calificacin del examen slo en los casos
de: Sumatoria incorrecta de puntaje; Respuestas no calificadas. Las solicitudes rechazadas sern
sancionadas con el tenor de SOLICITUD IMPROCEDENTE.
3. Para el desarrollo del examen utilice lapicero. Para la calificacin, NO se tomar en cuenta lo
desarrollado con lpiz.

1. Respecto a la clave METAR cules son los que se encuentran


correctamente confeccionados. (02) puntos.
i. Metar 1300z 180/05 9999 OVC012 19/15 Q 1012
ii. Metar 1300z 180/05 5000 OVC012 FEW025 19/15 Q 1012
iii. Metar 1300z 180/05 9999 OVC050 15/16 Q 1012
iv. Metar 1300z 180/05 9999 FEW 050 OVC012 15/15 Q 1012
a) SOLO I
b) I II
c) I-II-III
d) I-IV

2. Respecto a un reporte SPECI indicar si cul de las siguientes


expresiones es verdadera y falsa (2 puntos)

a.Cuando la capa de nubes pasa de BKN a SCT ( )


b.Cuando la capa de nubes pasa de FEW a SCT ( )
c. Cuando la capa de nubes pasa de OVC a SCT ( )
d.Cuando la capa de nubes pasa de BKN a CAVOK ( )

3. Indicar cuales son los idiomas reconocidos por la OACI. (02) puntos
I. Ruso, II. Francs, III. Ingles, IV. rabe, V. Espaol

a) I-ii-iii
b) I-ii-iii-iv-v
c) I-iii-v
d) Solo i-ii

4. Descifrar los siguiente mensaje METAR: (02 puntos C/U)

SPQT 211000 30003KT 260V020 6000 VCSH BKN010 OVC070 25/25 Q1013
5. El METAR: es un mensaje meteorolgico aeronutico, que contiene
informacin de ., emitido, por diferentes
estaciones a lo largo del pas. (2 punto)

a) Meteorolgica / Cuando hay variaciones


b) De tiempo presente / cuando hay variaciones
c) Importante para la navegacin / cada hora
d) De tiempo presente / cada hora

6. Cuando se encuentre agua en una pista, debera facilitarse una


descripcin de las condiciones en la parte central a lo largo de la
pista, inclusive la evaluacin de la profundidad del agua, si fuera
posible y pertinente, utilizando los trminos siguientes(2 PUNTOS)

i. Pista Hmeda
ii. Pista con Agua
iii. Pista encharcada
iv. Pista Inundada
a) I-II
b) II-III
c) I-II-III-IV
d) I-IV
7. Son consideradas como radioayudas para la navegacin las siguientes.
(02) puntos
i. VOR
ii. ADF
iii. ILS
iv. DME

a) I-II
b) II-III
c) I-II-III-IV
d) IV

8. Indicar cul(es) de esta(s) expresiones son correctas. (02) puntos


i. Las aeronaves por lo general aterrizan y despegan en contra del viento
ii. Los aeropuertos de alternativa son de pos-despegue, ruta y destino
iii. Las dependencias de control de trnsito areo son TWR-APP-ACC
iv. El plan de vuelo puede ser presentado con 100 horas de anticipacin.

a) I-II
b) I-II-III
c) I-IV
d) I-II-IV

8.- Indicar cul(es) de esta(s) de los anexos de la OACI son los correctos. (02) puntos
i. Anexo 3 Meteorologa
ii. Anexo 14 Aerdromos
iii. Anexo 10 Telecomunicaciones
iv. Anexo 4 Control de Trnsito areo.

a) II-III
b) II-III-IV
c) I-II-III
d) I-IV
9. Con los siguientes datos confeccionar un mensaje METAR: (02 puntos)

El meteorlogo de Tarapoto, el da de hoy al momento de hacer su observacin a


las 13:50 hora local obtiene los siguientes datos, viento de los 220 grados con una
intensidad de 2 nudos, asimismo hay viento variable desde 160 a 250 grados,
visibilidad de 10km. Sin presencia de ningn nubosidad por debajo de 6000 pies, ni
nubes CU TCU, temperatura 23 grados y punto de rocio a 20 grados, altmetro
1015 hectopascales.

10. Indicar que mensaje METAR est mal confeccionado: (2 punto)

a) SPSO 071200Z VRB02KT 4000 FU SCT100 22/20 Q1013 RMK BIRD HAZARD RWY 22/04 PP000
b) SPSO 071100Z VRB02KT 9999 SCT100 BKN150 23/20 Q1012 RMK PP000
c) SPSO 071000Z 02001KT 9999 FEW020 SCT040 BKN080 20/20 Q1012 RMK PP000
d) SPSO 070900Z 11003KT 9999 OVC045 SCT100 22/20 Q1012 RMK PP000
e) SPSO 070800Z 00000KT CAVOK 22/20 Q1012 RMK PP000

TABLA DE ESPECIFICACIONES
TEMA: INFORME METEOROLOGICOS
Nivel de Aprendiza Aprendiza
aprendizaje jes jes
Aprendiza Aprendiza
superiore superiore
jes jes
s s Total
elemental intermedi
Contenidos converge divergent
es os
ntes es
1. Tipos de 10 % 10% 10% 10% 40%
2 puntos 2 puntos 2 puntos 2 puntos 8 puntos
reportes
meteorolgico
s
2. Confeccin de 5% 10 % 10 % 25 %
1 puntos 2 puntos 2 puntos 5 puntos
un reporte
meteorolgico
3. Descifrar 15 % 15 % 5% 35 %
3 puntos 3 puntos 1 puntos 7 puntos
reportes
meteorolgico
s
TOTAL 30 % 35 % 25 % 10 % 100 %
6 puntos 7 puntos 5 puntos 2 puntos 20 puntos